Time;durP1;ratioP1;P1;durP2;ratioP2;P2;SDS_P1;SDS_P2;PMS_P1;PMS_P2;Temp;Humidity;BMP_temperature;BMP_pressure;BME280_temperature;BME280_humidity;BME280_pressure;Samples;Min_cycle;Max_cycle;Signal;HPM_P1;HPM_P2
2022/01/04 00:01:21;;;;;;;1999.90;999.90;;;9.20;99.90;;;;;;5013890;28;20452;-71
2022/01/04 00:03:47;;;;;;;1999.90;999.90;;;9.20;99.90;;;;;;5013576;28;20464;-71
2022/01/04 00:06:15;;;;;;;1999.90;999.90;;;9.30;99.90;;;;;;5014115;28;20444;-71
2022/01/04 00:08:41;;;;;;;1999.90;999.90;;;9.20;99.90;;;;;;5013396;28;20944;-71
2022/01/04 00:11:15;;;;;;;1999.90;999.90;;;9.20;99.90;;;;;;5012798;28;20440;-71
2022/01/04 00:13:44;;;;;;;1999.90;999.90;;;9.10;99.90;;;;;;5013929;28;20475;-73
2022/01/04 00:16:11;;;;;;;1999.90;999.90;;;9.10;99.90;;;;;;5014304;28;20439;-71
2022/01/04 00:18:38;;;;;;;1999.90;999.90;;;9.10;99.90;;;;;;5014118;28;20447;-71
2022/01/04 00:21:05;;;;;;;1999.90;999.90;;;9.20;99.90;;;;;;5013726;28;20444;-71
2022/01/04 00:23:32;;;;;;;1999.90;999.90;;;9.20;99.90;;;;;;5013990;28;20467;-71
2022/01/04 00:25:58;;;;;;;1999.90;999.90;;;9.10;99.90;;;;;;5014108;28;20440;-73
2022/01/04 00:28:27;;;;;;;1999.90;999.90;;;9.10;99.90;;;;;;5013644;28;20526;-71
2022/01/04 00:30:55;;;;;;;1999.90;999.90;;;9.20;99.90;;;;;;5013652;28;20483;-70
2022/01/04 00:33:22;;;;;;;1999.90;999.90;;;9.10;99.90;;;;;;5013861;28;20471;-71
2022/01/04 00:35:49;;;;;;;1999.90;999.90;;;9.20;99.90;;;;;;5013663;28;20459;-73
2022/01/04 00:38:16;;;;;;;1999.90;999.90;;;9.10;99.90;;;;;;5013337;28;20502;-72
2022/01/04 00:40:42;;;;;;;1999.90;999.90;;;9.20;99.90;;;;;;5011890;28;20440;-72
2022/01/04 00:43:09;;;;;;;1999.90;999.90;;;9.20;99.90;;;;;;5013583;28;20452;-71
2022/01/04 00:45:37;;;;;;;1999.90;999.90;;;9.20;99.90;;;;;;5013121;28;20992;-73
2022/01/04 00:50:47;;;;;;;1999.90;999.90;;;9.20;99.90;;;;;;5011339;28;20480;-70
2022/01/04 00:53:14;;;;;;;1999.90;999.90;;;9.20;99.90;;;;;;5012969;28;20448;-69
2022/01/04 00:55:40;;;;;;;1999.90;999.90;;;9.20;99.90;;;;;;5013424;28;20455;-69
2022/01/04 00:58:07;;;;;;;1999.90;999.90;;;9.20;99.90;;;;;;5013408;28;20448;-70
2022/01/04 01:00:34;;;;;;;1999.90;999.90;;;9.20;99.90;;;;;;5012680;28;20453;-69
2022/01/04 01:03:01;;;;;;;1999.90;999.90;;;9.30;99.90;;;;;;5013494;28;20448;-69
2022/01/04 01:05:29;;;;;;;1999.90;999.90;;;9.30;99.90;;;;;;5012799;28;20518;-71
2022/01/04 01:07:56;;;;;;;1999.90;999.90;;;9.30;99.90;;;;;;5013065;28;20874;-70
2022/01/04 01:10:41;;;;;;;1999.90;999.90;;;9.40;99.90;;;;;;5011848;28;20487;-69
2022/01/04 01:13:07;;;;;;;1999.90;999.90;;;9.40;99.90;;;;;;5011001;28;20956;-70
2022/01/04 01:15:35;;;;;;;1999.90;999.90;;;9.40;99.90;;;;;;5013135;28;20464;-72
2022/01/04 01:18:02;;;;;;;1999.90;999.90;;;9.40;99.90;;;;;;5012986;28;20448;-72
2022/01/04 01:20:30;;;;;;;1999.90;999.90;;;9.40;99.90;;;;;;5012830;28;20951;-71
2022/01/04 01:22:58;;;;;;;1999.90;999.90;;;9.50;99.90;;;;;;5013497;28;20498;-70
2022/01/04 01:25:25;;;;;;;1999.90;999.90;;;9.50;99.90;;;;;;5013307;28;20579;-72
2022/01/04 01:27:52;;;;;;;1999.90;999.90;;;9.60;99.90;;;;;;5013376;28;20451;-69
2022/01/04 01:30:19;;;;;;;1999.90;999.90;;;9.70;99.90;;;;;;5012963;28;20484;-72
2022/01/04 01:32:45;;;;;;;1999.90;999.90;;;9.60;99.90;;;;;;5013077;28;20456;-71
2022/01/04 01:35:12;;;;;;;1999.90;999.90;;;9.70;99.90;;;;;;5013693;28;20551;-71
2022/01/04 01:37:40;;;;;;;1999.90;999.90;;;9.70;99.90;;;;;;5013071;28;20448;-71
2022/01/04 01:40:07;;;;;;;1999.90;999.90;;;9.70;99.90;;;;;;5012576;28;20444;-72
2022/01/04 01:42:34;;;;;;;1999.90;999.90;;;9.60;99.90;;;;;;5012549;28;20448;-73
2022/01/04 01:45:01;;;;;;;1999.90;999.90;;;9.60;99.90;;;;;;5012208;28;20467;-72
2022/01/04 01:47:28;;;;;;;1999.90;999.90;;;9.60;99.90;;;;;;5012402;28;20452;-71
2022/01/04 01:49:54;;;;;;;1999.90;999.90;;;9.60;99.90;;;;;;5011753;28;20487;-69
2022/01/04 01:52:21;;;;;;;1999.90;999.90;;;9.60;99.90;;;;;;5012051;28;20448;-73
2022/01/04 01:54:49;;;;;;;1999.90;999.90;;;9.60;99.90;;;;;;5011759;28;20464;-71
2022/01/04 01:57:16;;;;;;;1999.90;999.90;;;9.50;99.90;;;;;;5012220;28;20448;-72
2022/01/04 01:59:43;;;;;;;1999.90;999.90;;;9.50;99.90;;;;;;5011950;28;21241;-72
2022/01/04 02:02:10;;;;;;;1999.90;999.90;;;9.50;99.90;;;;;;5011374;28;20444;-73
2022/01/04 02:04:36;;;;;;;1999.90;999.90;;;9.50;99.90;;;;;;5011726;28;20996;-72
2022/01/04 02:07:03;;;;;;;1999.90;999.90;;;9.40;99.90;;;;;;5011897;28;20451;-72
2022/01/04 02:09:33;;;;;;;1999.90;999.90;;;9.40;99.90;;;;;;5011465;28;20484;-72
2022/01/04 02:12:01;;;;;;;1999.90;999.90;;;9.40;99.90;;;;;;5011484;28;20460;-72
2022/01/04 02:14:28;;;;;;;1999.90;999.90;;;9.30;99.90;;;;;;5011890;28;20881;-71
2022/01/04 02:16:55;;;;;;;1999.90;999.90;;;9.30;99.90;;;;;;5011715;28;20455;-72
2022/01/04 02:19:22;;;;;;;1999.90;999.90;;;9.30;99.90;;;;;;5012292;28;20443;-72
2022/01/04 02:21:50;;;;;;;1999.90;999.90;;;9.30;99.90;;;;;;5011952;28;20538;-70
2022/01/04 02:24:16;;;;;;;1999.90;999.90;;;9.40;99.90;;;;;;5012325;28;20491;-69
2022/01/04 02:26:43;;;;;;;1999.90;999.90;;;9.40;99.90;;;;;;5012027;28;20452;-69
2022/01/04 02:29:10;;;;;;;1999.90;999.90;;;9.40;99.90;;;;;;5012429;28;20443;-70
2022/01/04 02:31:37;;;;;;;1999.90;999.90;;;9.40;99.90;;;;;;5011913;28;20440;-70
2022/01/04 02:34:04;;;;;;;1999.90;999.90;;;9.30;99.90;;;;;;5012185;28;20460;-70
2022/01/04 02:36:31;;;;;;;1999.90;999.90;;;9.30;99.90;;;;;;5012073;28;20956;-70
2022/01/04 02:38:59;;;;;;;1999.90;999.90;;;9.30;99.90;;;;;;5011880;28;20944;-70
2022/01/04 02:41:26;;;;;;;1999.90;999.90;;;9.20;99.90;;;;;;5011888;28;21011;-70
2022/01/04 02:43:52;;;;;;;1999.90;999.90;;;9.20;99.90;;;;;;5011929;28;20466;-67
2022/01/04 02:46:19;;;;;;;1999.90;999.90;;;8.90;99.90;;;;;;5011416;28;20905;-70
2022/01/04 02:48:46;;;;;;;1999.90;999.90;;;9.20;99.90;;;;;;5011824;28;20451;-70
2022/01/04 02:51:13;;;;;;;1999.90;999.90;;;9.20;99.90;;;;;;5011181;28;20483;-70
2022/01/04 02:53:40;;;;;;;1999.90;999.90;;;9.20;99.90;;;;;;5011854;28;20474;-70
2022/01/04 02:56:08;;;;;;;1999.90;999.90;;;9.10;99.90;;;;;;5011783;28;20452;-70
2022/01/04 02:58:35;;;;;;;1999.90;999.90;;;9.20;99.90;;;;;;5012144;28;20522;-70
2022/01/04 03:01:01;;;;;;;1999.90;999.90;;;9.10;99.90;;;;;;5011202;28;20448;-70
2022/01/04 03:03:28;;;;;;;1999.90;999.90;;;9.10;99.90;;;;;;5012094;28;20945;-71
2022/01/04 03:05:55;;;;;;;1999.90;999.90;;;9.10;99.90;;;;;;5015140;28;20454;-70
2022/01/04 03:08:22;;;;;;;1999.90;999.90;;;9.00;99.90;;;;;;5015542;28;20803;-70
2022/01/04 03:10:49;;;;;;;1999.90;999.90;;;9.00;99.90;;;;;;5013971;28;20530;-70
2022/01/04 03:13:17;;;;;;;1999.90;999.90;;;9.00;99.90;;;;;;5015094;28;20464;-69
2022/01/04 03:15:44;;;;;;;1999.90;999.90;;;9.00;99.90;;;;;;5014804;28;20451;-69
2022/01/04 03:18:10;;;;;;;1999.90;999.90;;;9.00;99.90;;;;;;5015800;28;20447;-70
2022/01/04 03:20:37;;;;;;;1999.90;999.90;;;8.90;99.90;;;;;;5015506;28;20443;-71
2022/01/04 03:23:08;;;;;;;1999.90;999.90;;;8.80;99.90;;;;;;5015158;28;20502;-73
2022/01/04 03:25:36;;;;;;;1999.90;999.90;;;8.80;99.90;;;;;;5014986;28;20566;-72
2022/01/04 03:28:04;;;;;;;1999.90;999.90;;;8.80;99.90;;;;;;5014821;28;20440;-72
2022/01/04 03:30:32;;;;;;;1999.90;999.90;;;8.90;99.90;;;;;;5014407;28;20479;-72
2022/01/04 03:32:59;;;;;;;1999.90;999.90;;;8.90;99.90;;;;;;5015135;28;20448;-73
2022/01/04 03:35:25;;;;;;;1999.90;999.90;;;8.90;99.90;;;;;;5014979;28;20467;-72
2022/01/04 03:37:52;;;;;;;1999.90;999.90;;;8.70;99.90;;;;;;5014729;28;20478;-71
2022/01/04 03:40:19;;;;;;;1999.90;999.90;;;8.70;99.90;;;;;;4995096;28;20441;-71
2022/01/04 03:42:46;;;;;;;1999.90;999.90;;;8.70;99.90;;;;;;4995053;28;20444;-72
2022/01/04 03:45:13;;;;;;;1999.90;999.90;;;8.60;99.90;;;;;;5008366;28;20537;-72
2022/01/04 03:47:41;;;;;;;1999.90;999.90;;;8.70;99.90;;;;;;5014456;28;20506;-72
2022/01/04 03:50:08;;;;;;;1999.90;999.90;;;8.60;99.90;;;;;;5013985;28;20527;-71
2022/01/04 03:52:36;;;;;;;1999.90;999.90;;;8.70;99.90;;;;;;5014218;28;21014;-72
2022/01/04 03:55:03;;;;;;;1999.90;999.90;;;8.70;99.90;;;;;;5013700;28;21026;-72
2022/01/04 03:57:30;;;;;;;1999.90;999.90;;;8.70;99.90;;;;;;5014222;28;21014;-72
2022/01/04 03:59:56;;;;;;;1999.90;999.90;;;8.70;99.90;;;;;;5013849;28;20452;-72
2022/01/04 04:02:23;;;;;;;1999.90;999.90;;;8.80;99.90;;;;;;5014562;28;20474;-72
2022/01/04 04:04:51;;;;;;;1999.90;999.90;;;8.90;99.90;;;;;;5013645;28;20483;-72
2022/01/04 04:07:18;;;;;;;1999.90;999.90;;;9.00;99.90;;;;;;5014464;28;20451;-72
2022/01/04 04:09:44;;;;;;;1999.90;999.90;;;9.00;99.90;;;;;;5013506;28;20449;-72
2022/01/04 04:12:13;;;;;;;1999.90;999.90;;;9.00;99.90;;;;;;5013477;28;20474;-71
2022/01/04 04:14:40;;;;;;;1999.90;999.90;;;8.90;99.90;;;;;;5013136;28;20499;-72
2022/01/04 04:17:07;;;;;;;1999.90;999.90;;;8.90;99.90;;;;;;5014017;28;20463;-72
2022/01/04 04:19:34;;;;;;;1999.90;999.90;;;8.90;99.90;;;;;;5013447;28;20459;-72
2022/01/04 04:22:02;;;;;;;1999.90;999.90;;;8.90;99.90;;;;;;5013409;28;20956;-74
2022/01/04 04:24:28;;;;;;;1999.90;999.90;;;8.80;99.90;;;;;;5013704;28;20475;-71
2022/01/04 04:26:55;;;;;;;1999.90;999.90;;;8.80;99.90;;;;;;5013875;28;20498;-72
2022/01/04 04:29:22;;;;;;;1999.90;999.90;;;8.80;99.90;;;;;;5013961;28;20448;-71
2022/01/04 04:31:48;;;;;;;1999.90;999.90;;;8.90;99.90;;;;;;5013535;28;20480;-72
2022/01/04 04:34:15;;;;;;;1999.90;999.90;;;8.80;99.90;;;;;;5013337;28;20471;-71
2022/01/04 04:36:42;;;;;;;1999.90;999.90;;;8.80;99.90;;;;;;5013515;28;20452;-72
2022/01/04 04:39:10;;;;;;;1999.90;999.90;;;8.80;99.90;;;;;;5013661;28;20456;-69
2022/01/04 04:41:36;;;;;;;1999.90;999.90;;;8.80;99.90;;;;;;5013176;28;20448;-70
2022/01/04 04:44:03;;;;;;;1999.90;999.90;;;8.90;99.90;;;;;;5012787;28;21034;-69
2022/01/04 04:46:30;;;;;;;1999.90;999.90;;;8.90;99.90;;;;;;5013234;28;20459;-70
2022/01/04 04:48:56;;;;;;;1999.90;999.90;;;8.80;99.90;;;;;;5013744;28;20502;-72
2022/01/04 04:51:23;;;;;;;1999.90;999.90;;;8.70;99.90;;;;;;5012862;28;20480;-69
2022/01/04 04:53:50;;;;;;;1999.90;999.90;;;8.60;99.90;;;;;;5013370;28;20464;-70
2022/01/04 04:56:18;;;;;;;1999.90;999.90;;;8.60;99.90;;;;;;5013231;28;20448;-70
2022/01/04 04:58:44;;;;;;;1999.90;999.90;;;8.70;99.90;;;;;;5012733;28;20503;-70
2022/01/04 05:01:11;;;;;;;1999.90;999.90;;;8.70;99.90;;;;;;5013209;28;20440;-70
2022/01/04 05:03:38;;;;;;;1999.90;999.90;;;8.70;99.90;;;;;;5014832;28;20538;-70
2022/01/04 05:06:04;;;;;;;1999.90;999.90;;;8.60;99.90;;;;;;5013359;28;20448;-70
2022/01/04 05:08:31;;;;;;;1999.90;999.90;;;8.70;99.90;;;;;;5013572;28;20459;-70
2022/01/04 05:10:58;;;;;;;1999.90;999.90;;;8.70;99.90;;;;;;5012403;28;20475;-70
2022/01/04 05:13:26;;;;;;;1999.90;999.90;;;8.60;99.90;;;;;;5012374;28;20550;-70
2022/01/04 05:15:53;;;;;;;1999.90;999.90;;;8.60;99.90;;;;;;5011543;28;20444;-70
2022/01/04 05:18:19;;;;;;;1999.90;999.90;;;8.70;99.90;;;;;;5013559;28;20455;-68
2022/01/04 05:20:46;;;;;;;1999.90;999.90;;;8.80;99.90;;;;;;5013025;28;20929;-70
2022/01/04 05:23:13;;;;;;;1999.90;999.90;;;8.90;99.90;;;;;;5012837;28;20490;-71
2022/01/04 05:25:40;;;;;;;1999.90;999.90;;;8.70;99.90;;;;;;5012614;28;20948;-70
2022/01/04 05:28:06;;;;;;;1999.90;999.90;;;8.70;99.90;;;;;;5012650;28;20816;-70
2022/01/04 05:30:34;;;;;;;1999.90;999.90;;;8.70;99.90;;;;;;5012604;28;20538;-70
2022/01/04 05:33:01;;;;;;;1999.90;999.90;;;8.60;99.90;;;;;;5013117;28;20456;-69
2022/01/04 05:35:28;;;;;;;1999.90;999.90;;;8.50;99.90;;;;;;5012809;28;21011;-71
2022/01/04 05:37:55;;;;;;;1999.90;999.90;;;8.50;99.90;;;;;;5012918;28;20452;-70
2022/01/04 05:40:21;;;;;;;1999.90;999.90;;;8.50;99.90;;;;;;5012368;28;20452;-70
2022/01/04 05:42:48;;;;;;;1999.90;999.90;;;8.50;99.90;;;;;;5012776;28;20452;-70
2022/01/04 05:45:15;;;;;;;1999.90;999.90;;;8.60;99.90;;;;;;5012671;28;20529;-72
2022/01/04 05:47:43;;;;;;;1999.90;999.90;;;8.60;99.90;;;;;;5012954;28;20452;-70
2022/01/04 05:50:10;;;;;;;1999.90;999.90;;;8.70;99.90;;;;;;5011358;28;20982;-70
2022/01/04 05:52:36;;;;;;;1999.90;999.90;;;8.70;99.90;;;;;;5012314;28;20479;-70
2022/01/04 05:55:04;;;;;;;1999.90;999.90;;;8.70;99.90;;;;;;5011818;28;20468;-69
2022/01/04 05:57:32;;;;;;;1999.90;999.90;;;8.70;99.90;;;;;;5011772;28;20502;-70
2022/01/04 05:59:59;;;;;;;1999.90;999.90;;;8.60;99.90;;;;;;5012363;28;20455;-69
2022/01/04 06:02:26;;;;;;;1999.90;999.90;;;8.50;99.90;;;;;;5012872;28;20475;-68
2022/01/04 06:04:54;;;;;;;1999.90;999.90;;;8.50;99.90;;;;;;5012067;28;20475;-70
2022/01/04 06:07:20;;;;;;;1999.90;999.90;;;8.40;99.90;;;;;;5011987;28;20455;-71
2022/01/04 06:09:50;;;;;;;1999.90;999.90;;;8.40;99.90;;;;;;5011898;28;20486;-72
2022/01/04 06:15:04;;;;;;;1999.90;999.90;;;8.30;99.90;;;;;;5011503;28;20550;-72
2022/01/04 06:17:32;;;;;;;1999.90;999.90;;;8.40;99.90;;;;;;5010910;28;21018;-70
2022/01/04 06:20:01;;;;;;;1999.90;999.90;;;8.40;99.90;;;;;;5010655;28;20445;-70
2022/01/04 06:22:29;;;;;;;1999.90;999.90;;;8.30;99.90;;;;;;5011753;28;20456;-70
2022/01/04 06:24:57;;;;;;;1999.90;999.90;;;8.30;99.90;;;;;;5011128;28;20472;-69
2022/01/04 06:27:24;;;;;;;1999.90;999.90;;;8.40;99.90;;;;;;5010918;28;20456;-70
2022/01/04 06:29:51;;;;;;;1999.90;999.90;;;8.40;99.90;;;;;;5011002;28;20459;-73
2022/01/04 06:32:19;;;;;;;1999.90;999.90;;;8.50;99.90;;;;;;5009747;28;20484;-70
2022/01/04 06:34:45;;;;;;;1999.90;999.90;;;8.40;99.90;;;;;;5010363;28;20472;-70
2022/01/04 06:37:14;;;;;;;1999.90;999.90;;;8.40;99.90;;;;;;5010538;28;20448;-70
2022/01/04 06:39:41;;;;;;;1999.90;999.90;;;8.20;99.90;;;;;;5012536;28;20451;-70
2022/01/04 06:42:08;;;;;;;1999.90;999.90;;;8.10;99.90;;;;;;5013982;28;20502;-69
2022/01/04 06:44:35;;;;;;;1999.90;999.90;;;8.00;99.90;;;;;;5013446;28;20466;-70
2022/01/04 06:47:03;;;;;;;1999.90;999.90;;;8.10;99.90;;;;;;5014126;28;20502;-70
2022/01/04 06:49:29;;;;;;;1999.90;999.90;;;8.10;99.90;;;;;;5014757;28;20506;-70
2022/01/04 06:51:56;;;;;;;1999.90;999.90;;;8.10;99.90;;;;;;5013935;28;20484;-70
2022/01/04 06:54:24;;;;;;;1999.90;999.90;;;8.10;99.90;;;;;;5013605;28;20510;-70
2022/01/04 06:56:51;;;;;;;1999.90;999.90;;;8.00;99.90;;;;;;5014692;28;20452;-70
2022/01/04 06:59:18;;;;;;;1999.90;999.90;;;8.00;99.90;;;;;;5014020;28;20459;-70
2022/01/04 07:01:46;;;;;;;1999.90;999.90;;;8.10;99.90;;;;;;5014214;28;20498;-71
2022/01/04 07:04:12;;;;;;;1999.90;999.90;;;8.10;99.90;;;;;;5014118;28;20480;-70
2022/01/04 07:06:39;;;;;;;1999.90;999.90;;;8.00;99.90;;;;;;5013597;28;20502;-70
2022/01/04 07:09:07;;;;;;;1999.90;999.90;;;8.00;99.90;;;;;;5014672;28;20447;-70
2022/01/04 07:11:37;;;;;;;1999.90;999.90;;;8.00;99.90;;;;;;5013328;28;20567;-70
2022/01/04 07:14:04;;;;;;;1999.90;999.90;;;8.00;99.90;;;;;;4976114;28;1121427;-70
2022/01/04 07:16:31;;;;;;;1999.90;999.90;;;8.00;99.90;;;;;;5015409;28;20288;-70
2022/01/04 07:18:58;;;;;;;1999.90;999.90;;;8.00;99.90;;;;;;5015441;28;20481;-70
2022/01/04 07:21:24;;;;;;;1999.90;999.90;;;8.00;99.90;;;;;;5015175;28;20822;-70
2022/01/04 07:23:54;;;;;;;1999.90;999.90;;;7.90;99.90;;;;;;5015757;28;20464;-70
2022/01/04 07:26:21;;;;;;;1999.90;999.90;;;7.90;99.90;;;;;;5015051;28;20458;-70
2022/01/04 07:28:50;;;;;;;1999.90;999.90;;;7.90;99.90;;;;;;5015433;28;20547;-69
2022/01/04 07:31:17;;;;;;;1999.90;999.90;;;7.90;99.90;;;;;;5014870;28;21174;-70
2022/01/04 07:33:45;;;;;;;1999.90;999.90;;;7.90;99.90;;;;;;5015017;28;20471;-70
2022/01/04 07:36:12;;;;;;;1999.90;999.90;;;8.00;99.90;;;;;;5014787;28;20991;-70
2022/01/04 07:38:39;;;;;;;1999.90;999.90;;;8.10;99.90;;;;;;5014630;28;20513;-71
2022/01/04 07:41:06;;;;;;;1999.90;999.90;;;8.00;99.90;;;;;;5014750;28;20451;-72
2022/01/04 07:43:34;;;;;;;1999.90;999.90;;;8.00;99.90;;;;;;5013604;28;20526;-72
2022/01/04 07:46:02;;;;;;;1999.90;999.90;;;8.00;99.90;;;;;;5009922;28;20463;-72
2022/01/04 07:48:29;;;;;;;1999.90;999.90;;;8.00;99.90;;;;;;5014278;28;21028;-72
2022/01/04 07:50:58;;;;;;;1999.90;999.90;;;8.00;99.90;;;;;;5013446;28;20450;-71
2022/01/04 07:53:25;;;;;;;1999.90;999.90;;;8.00;99.90;;;;;;5006729;28;20456;-72
2022/01/04 07:55:51;;;;;;;1999.90;999.90;;;8.00;99.90;;;;;;5014269;28;20448;-72
2022/01/04 07:58:18;;;;;;;1999.90;999.90;;;8.10;99.90;;;;;;5013890;28;20948;-71
2022/01/04 08:00:45;;;;;;;1999.90;999.90;;;8.10;99.90;;;;;;5013935;28;20448;-71
2022/01/04 08:03:13;;;;;;;1999.90;999.90;;;8.10;99.90;;;;;;5013966;28;20444;-72
2022/01/04 08:05:40;;;;;;;1999.90;999.90;;;8.20;99.90;;;;;;5013682;28;20948;-72
2022/01/04 08:08:06;;;;;;;1999.90;999.90;;;8.20;99.90;;;;;;5014149;28;20448;-72
2022/01/04 08:10:33;;;;;;;1999.90;999.90;;;8.30;99.90;;;;;;5013381;28;20824;-72
2022/01/04 08:13:00;;;;;;;1999.90;999.90;;;8.40;99.90;;;;;;5014170;28;20491;-74
2022/01/04 08:15:27;;;;;;;1999.90;999.90;;;8.40;99.90;;;;;;5013153;28;20480;-72
2022/01/04 08:17:54;;;;;;;1999.90;999.90;;;8.40;99.90;;;;;;5013438;28;20448;-72
2022/01/04 08:20:22;;;;;;;1999.90;999.90;;;8.40;99.90;;;;;;5013929;28;20872;-73
2022/01/04 08:22:49;;;;;;;1999.90;999.90;;;8.40;99.90;;;;;;5013603;28;20572;-74
2022/01/04 08:25:15;;;;;;;1999.90;999.90;;;8.50;99.90;;;;;;5013927;28;20468;-72
2022/01/04 08:27:43;;;;;;;1999.90;999.90;;;8.50;99.90;;;;;;5013927;28;20449;-71
2022/01/04 08:30:12;;;;;;;1999.90;999.90;;;8.60;99.90;;;;;;5013449;28;20448;-71
2022/01/04 08:32:39;;;;;;;1999.90;999.90;;;8.60;99.90;;;;;;5013097;28;20992;-71
2022/01/04 08:35:07;;;;;;;1999.90;999.90;;;8.60;99.90;;;;;;5014045;28;20468;-72
2022/01/04 08:37:35;;;;;;;1999.90;999.90;;;8.50;99.90;;;;;;5013636;28;20460;-71
2022/01/04 08:40:02;;;;;;;1999.90;999.90;;;8.50;99.90;;;;;;5012397;28;20448;-71
2022/01/04 08:42:29;;;;;;;1999.90;999.90;;;8.60;99.90;;;;;;5013425;28;20448;-71
2022/01/04 08:44:55;;;;;;;1999.90;999.90;;;8.60;99.90;;;;;;5013262;28;20519;-72
2022/01/04 08:47:23;;;;;;;1999.90;999.90;;;8.50;99.90;;;;;;5013564;28;20487;-72
2022/01/04 08:49:50;;;;;;;1999.90;999.90;;;8.50;99.90;;;;;;5013235;28;20543;-72
2022/01/04 08:52:17;;;;;;;1999.90;999.90;;;8.50;99.90;;;;;;5012380;28;21233;-71
2022/01/04 08:54:45;;;;;;;1999.90;999.90;;;8.50;99.90;;;;;;5013711;28;20468;-72
2022/01/04 08:57:12;;;;;;;1999.90;999.90;;;8.50;99.90;;;;;;5012789;28;20456;-72
2022/01/04 08:59:38;;;;;;;1999.90;999.90;;;8.40;99.90;;;;;;5013238;28;20455;-72
2022/01/04 09:02:05;;;;;;;1999.90;999.90;;;8.40;99.90;;;;;;5012080;28;20456;-72
2022/01/04 09:04:32;;;;;;;1999.90;999.90;;;8.40;99.90;;;;;;5013093;28;20563;-73
2022/01/04 09:06:59;;;;;;;1999.90;999.90;;;8.50;99.90;;;;;;5013377;28;20448;-72
2022/01/04 09:09:25;;;;;;;1999.90;999.90;;;8.50;99.90;;;;;;5012924;28;20506;-72
2022/01/04 09:11:53;;;;;;;1999.90;999.90;;;8.50;99.90;;;;;;5012547;28;20492;-71
2022/01/04 09:14:25;;;;;;;1999.90;999.90;;;8.50;99.90;;;;;;5011667;28;20480;-71
2022/01/04 09:19:36;;;;;;;1999.90;999.90;;;8.70;99.90;;;;;;5012677;28;20408;-72
2022/01/04 09:22:03;;;;;;;1999.90;999.90;;;8.80;99.90;;;;;;5012742;28;20527;-71
2022/01/04 09:24:30;;;;;;;1999.90;999.90;;;8.70;99.90;;;;;;5012859;28;20870;-72
2022/01/04 09:26:58;;;;;;;1999.90;999.90;;;8.70;99.90;;;;;;5011404;28;20444;-72
2022/01/04 09:29:25;;;;;;;1999.90;999.90;;;8.60;99.90;;;;;;5013177;28;20451;-72
2022/01/04 09:31:55;;;;;;;1999.90;999.90;;;8.70;99.90;;;;;;5012197;28;20480;-71
2022/01/04 09:34:22;;;;;;;1999.90;999.90;;;8.70;99.90;;;;;;5012861;28;20460;-70
2022/01/04 09:36:49;;;;;;;1999.90;999.90;;;8.60;99.90;;;;;;5012672;28;20510;-70
2022/01/04 09:39:17;;;;;;;1999.90;999.90;;;8.60;99.90;;;;;;5012812;28;20498;-70
2022/01/04 09:41:44;;;;;;;1999.90;999.90;;;8.60;99.90;;;;;;5009498;28;20506;-70
2022/01/04 09:44:12;;;;;;;1999.90;999.90;;;8.70;99.90;;;;;;5012802;28;20472;-72
2022/01/04 09:46:40;;;;;;;1999.90;999.90;;;8.70;99.90;;;;;;5012845;28;20448;-70
2022/01/04 09:49:09;;;;;;;1999.90;999.90;;;8.70;99.90;;;;;;5012534;28;20448;-71
2022/01/04 09:51:38;;;;;;;1999.90;999.90;;;8.70;99.90;;;;;;5012410;28;20451;-70
2022/01/04 09:54:05;;;;;;;1999.90;999.90;;;8.70;99.90;;;;;;5012593;28;21038;-70
2022/01/04 09:56:32;;;;;;;1999.90;999.90;;;8.50;99.90;;;;;;5012441;28;20469;-69
2022/01/04 09:58:58;;;;;;;1999.90;999.90;;;8.60;99.90;;;;;;5012026;28;20498;-69
2022/01/04 10:01:33;;;;;;;1999.90;999.90;;;8.60;99.90;;;;;;5012612;28;20455;-70
2022/01/04 10:04:01;;;;;;;1999.90;999.90;;;8.60;99.90;;;;;;5012776;28;20475;-69
2022/01/04 10:06:27;;;;;;;1999.90;999.90;;;8.50;99.90;;;;;;5012594;28;20941;-70
2022/01/04 10:08:56;;;;;;;1999.90;999.90;;;8.60;99.90;;;;;;5012102;28;20819;-70
2022/01/04 10:11:31;;;;;;;1999.90;999.90;;;8.60;99.90;;;;;;5011965;28;20448;-72
2022/01/04 10:13:59;;;;;;;1999.90;999.90;;;8.70;99.90;;;;;;5011911;28;21019;-70
2022/01/04 10:16:28;;;;;;;1999.90;999.90;;;8.70;99.90;;;;;;5012757;28;20451;-70
2022/01/04 10:18:56;;;;;;;1999.90;999.90;;;8.70;99.90;;;;;;5012543;28;20531;-70
2022/01/04 10:21:22;;;;;;;1999.90;999.90;;;8.80;99.90;;;;;;5012084;28;20448;-70
2022/01/04 10:23:52;;;;;;;1999.90;999.90;;;8.70;99.90;;;;;;5011982;28;20475;-69
2022/01/04 10:26:29;;;;;;;1999.90;999.90;;;8.80;99.90;;;;;;5012000;28;20433;-70
2022/01/04 10:28:55;;;;;;;1999.90;999.90;;;8.80;99.90;;;;;;5012765;28;20432;-69
2022/01/04 10:31:22;;;;;;;1999.90;999.90;;;8.80;99.90;;;;;;5012123;28;20514;-70
2022/01/04 10:33:54;;;;;;;1999.90;999.90;;;8.80;99.90;;;;;;5012496;28;20491;-71
2022/01/04 10:36:21;;;;;;;1999.90;999.90;;;8.80;99.90;;;;;;5012558;28;20432;-70
2022/01/04 10:38:50;;;;;;;1999.90;999.90;;;8.70;99.90;;;;;;5011882;28;20463;-70
2022/01/04 10:41:23;;;;;;;1999.90;999.90;;;8.80;99.90;;;;;;5012004;28;20460;-71
2022/01/04 10:43:53;;;;;;;1999.90;999.90;;;8.80;99.90;;;;;;5012086;28;20841;-70
2022/01/04 10:46:31;;;;;;;1999.90;999.90;;;8.80;99.90;;;;;;5011710;28;20452;-70
2022/01/04 10:48:59;;;;;;;1999.90;999.90;;;8.80;99.90;;;;;;5012174;28;20460;-71
2022/01/04 10:51:27;;;;;;;1999.90;999.90;;;8.80;99.90;;;;;;5011673;28;20823;-70
2022/01/04 10:53:57;;;;;;;1999.90;999.90;;;8.80;99.90;;;;;;4996750;28;20515;-71
2022/01/04 10:56:26;;;;;;;1999.90;999.90;;;8.80;99.90;;;;;;5022696;28;20889;-70
2022/01/04 10:58:56;;;;;;;1999.90;999.90;;;8.80;99.90;;;;;;5031937;28;20449;-70
2022/01/04 11:01:24;;;;;;;1999.90;999.90;;;8.70;99.90;;;;;;5032434;28;20473;-70
2022/01/04 11:03:54;;;;;;;1999.90;999.90;;;8.60;99.90;;;;;;5033525;28;20471;-70
2022/01/04 11:06:26;;;;;;;1999.90;999.90;;;8.80;99.90;;;;;;5031855;28;20478;-70
2022/01/04 11:08:53;;;;;;;1999.90;999.90;;;8.80;99.90;;;;;;5024542;28;20440;-71
2022/01/04 11:11:20;;;;;;;1999.90;999.90;;;8.70;99.90;;;;;;5011531;28;20448;-70
2022/01/04 11:13:51;;;;;;;1999.90;999.90;;;8.70;99.90;;;;;;5011131;28;20490;-70
2022/01/04 11:16:18;;;;;;;1999.90;999.90;;;8.70;99.90;;;;;;5012143;28;20932;-68
2022/01/04 11:18:49;;;;;;;1999.90;999.90;;;8.70;99.90;;;;;;5011684;28;20928;-68
2022/01/04 11:21:16;;;;;;;1999.90;999.90;;;8.80;99.90;;;;;;5011622;28;20524;-70
2022/01/04 11:23:47;;;;;;;1999.90;999.90;;;8.80;99.90;;;;;;5011574;28;20464;-70
2022/01/04 11:26:15;;;;;;;1999.90;999.90;;;8.90;99.90;;;;;;5015194;28;20448;-70
2022/01/04 11:28:44;;;;;;;1999.90;999.90;;;8.80;99.90;;;;;;5015392;28;21026;-70
2022/01/04 11:31:26;;;;;;;1999.90;999.90;;;8.70;99.90;;;;;;5015573;28;20455;-72
2022/01/04 11:33:59;;;;;;;1999.90;999.90;;;8.60;99.90;;;;;;5014733;28;20484;-72
2022/01/04 11:36:28;;;;;;;1999.90;999.90;;;8.60;99.90;;;;;;5010498;28;20467;-72
2022/01/04 11:38:56;;;;;;;1999.90;999.90;;;8.60;99.90;;;;;;5007883;28;20448;-71
2022/01/04 11:41:26;;;;;;;1999.90;999.90;;;8.60;99.90;;;;;;5012248;28;20475;-71
2022/01/04 11:43:53;;;;;;;1999.90;999.90;;;8.70;99.90;;;;;;5014788;28;20464;-71
2022/01/04 11:46:34;;;;;;;1999.90;999.90;;;8.80;99.90;;;;;;5013436;28;20448;-72
2022/01/04 11:49:10;;;;;;;1999.90;999.90;;;8.80;99.90;;;;;;5012695;28;20460;-71
2022/01/04 11:51:39;;;;;;;1999.90;999.90;;;8.90;99.90;;;;;;5012772;28;20497;-73
2022/01/04 11:54:19;;;;;;;1999.90;999.90;;;8.90;99.90;;;;;;5014053;28;20487;-70
2022/01/04 11:56:52;;;;;;;1999.90;999.90;;;8.90;99.90;;;;;;5013349;28;20509;-71
2022/01/04 11:59:20;;;;;;;1999.90;999.90;;;8.90;99.90;;;;;;5006875;28;20933;-71
2022/01/04 12:01:47;;;;;;;1999.90;999.90;;;9.00;99.90;;;;;;5013872;28;20546;-72
2022/01/04 12:04:34;;;;;;;1999.90;999.90;;;8.90;99.90;;;;;;5014034;28;21072;-72
2022/01/04 12:07:01;;;;;;;1999.90;999.90;;;8.90;99.90;;;;;;5014320;28;20455;-71
2022/01/04 12:09:29;;;;;;;1999.90;999.90;;;8.80;99.90;;;;;;5016348;28;20981;-72
2022/01/04 12:11:56;;;;;;;1999.90;999.90;;;8.80;99.90;;;;;;5014149;28;20483;-72
2022/01/04 12:14:27;;;;;;;1999.90;999.90;;;8.80;99.90;;;;;;5013328;28;20487;-72
2022/01/04 12:17:02;;;;;;;1999.90;999.90;;;8.70;99.90;;;;;;5013807;28;20449;-72
2022/01/04 12:19:48;;;;;;;1999.90;999.90;;;8.70;99.90;;;;;;5014004;28;20900;-72